Map

Track Data

SID SEASON NUMBER BASIN SUBBASIN NAME ISO_TIME NATURE LAT LON WMO_WIND WMO_PRES WMO_AGENCY TRACK_TYPE DIST2LAND LANDFALL IFLAG USA_AGENCY USA_ATCF_ID USA_LAT USA_LON USA_RECORD USA_STATUS USA_WIND USA_PRES USA_SSHS USA_R34_NE USA_R34_SE USA_R34_SW USA_R34_NW USA_R50_NE USA_R50_SE USA_R50_SW USA_R50_NW USA_R64_NE USA_R64_SE USA_R64_SW USA_R64_NW USA_POCI USA_ROCI USA_RMW USA_EYE TOKYO_LAT TOKYO_LON TOKYO_GRADE TOKYO_WIND TOKYO_PRES TOKYO_R50_DIR TOKYO_R50_LONG TOKYO_R50_SHORT TOKYO_R30_DIR TOKYO_R30_LONG TOKYO_R30_SHORT TOKYO_LAND CMA_LAT CMA_LON CMA_CAT CMA_WIND CMA_PRES HKO_LAT HKO_LON HKO_CAT HKO_WIND HKO_PRES NEWDELHI_LAT NEWDELHI_LON NEWDELHI_GRADE NEWDELHI_WIND NEWDELHI_PRES NEWDELHI_CI NEWDELHI_DP NEWDELHI_POCI REUNION_LAT REUNION_LON REUNION_TYPE REUNION_WIND REUNION_PRES REUNION_TNUM REUNION_CI REUNION_RMW REUNION_R34_NE REUNION_R34_SE REUNION_R34_SW REUNION_R34_NW REUNION_R50_NE REUNION_R50_SE REUNION_R50_SW REUNION_R50_NW REUNION_R64_NE REUNION_R64_SE REUNION_R64_SW REUNION_R64_NW BOM_LAT BOM_LON BOM_TYPE BOM_WIND BOM_PRES BOM_TNUM BOM_CI BOM_RMW BOM_R34_NE BOM_R34_SE BOM_R34_SW BOM_R34_NW BOM_R50_NE BOM_R50_SE BOM_R50_SW BOM_R50_NW BOM_R64_NE BOM_R64_SE BOM_R64_SW BOM_R64_NW BOM_ROCI BOM_POCI BOM_EYE BOM_POS_METHOD BOM_PRES_METHOD NADI_LAT NADI_LON NADI_CAT NADI_WIND NADI_PRES WELLINGTON_LAT WELLINGTON_LON WELLINGTON_WIND WELLINGTON_PRES DS824_LAT DS824_LON DS824_STAGE DS824_WIND DS824_PRES TD9636_LAT TD9636_LON TD9636_STAGE TD9636_WIND TD9636_PRES TD9635_LAT TD9635_LON TD9635_WIND TD9635_PRES TD9635_ROCI NEUMANN_LAT NEUMANN_LON NEUMANN_CLASS NEUMANN_WIND NEUMANN_PRES MLC_LAT MLC_LON MLC_CLASS MLC_WIND MLC_PRES USA_GUST BOM_GUST BOM_GUST_PER REUNION_GUST REUNION_GUST_PER USA_SEAHGT USA_SEARAD_NE USA_SEARAD_SE USA_SEARAD_SW USA_SEARAD_NW STORM_SPEED STORM_DIR
1971199N11254 1971 75 EP MM FRANCENE:FRANCESCA 1971-07-18 00:00:00 TS 11.3000 -105.700 25 hurdat_epa main 817 817 O________OO___ hurdat_epa EP061971 11.3000 -105.700 TD 25 -1 11.3000 -105.700 TC 25 11.3000 -105.700 1 8 276
1971199N11254 1971 75 EP MM FRANCENE:FRANCESCA 1971-07-18 03:00:00 TS 11.3442 -106.106 main 831 825 P________PP___ EP061971 11.3477 -106.120 TD 25 -1 11.3477 -106.120 TC 25 11.3300 -106.050 1 8 277
1971199N11254 1971 75 EP MM FRANCENE:FRANCESCA 1971-07-18 06:00:00 TS 11.3956 -106.482 25 hurdat_epa main 836 836 O________OP___ hurdat_epa EP061971 11.4000 -106.500 TD 25 -1 11.4000 -106.500 TC 25 11.3779 -106.410 1 7 280
1971199N11254 1971 75 EP MM FRANCENE:FRANCESCA 1971-07-18 09:00:00 TS 11.4682 -106.820 main 839 839 P________PP___ EP061971 11.4698 -106.828 TD 25 -1 11.4698 -106.828 TC 25 11.4618 -106.790 1 7 286
1971199N11254 1971 75 EP MM FRANCENE:FRANCESCA 1971-07-18 12:00:00 TS 11.6000 -107.200 25 hurdat_epa main 848 843 O________OO___ hurdat_epa EP061971 11.6000 -107.200 TD 25 -1 11.6000 -107.200 TC 25 11.6000 -107.200 1 9 292
1971199N11254 1971 75 EP MM FRANCENE:FRANCESCA 1971-07-18 15:00:00 TS 11.8171 -107.712 main 855 852 P________PP___ EP061971 11.8201 -107.727 TD 27 -1 11.8201 -107.727 TC 27 11.8049 -107.650 1 12 295
1971199N11254 1971 75 EP MM FRANCENE:FRANCESCA 1971-07-18 18:00:00 TS 12.0934 -108.269 30 hurdat_epa main 864 859 O________OP___ hurdat_epa EP061971 12.1000 -108.300 TD 30 -1 12.1000 -108.300 TC 30 12.0668 -108.146 1 12 299
1971199N11254 1971 75 EP MM FRANCENE:FRANCESCA 1971-07-18 21:00:00 TS 12.3818 -108.755 main 871 864 P________PP___ EP061971 12.3846 -108.770 TD 35 0 12.3846 -108.770 TC 35 12.3703 -108.694 1 12 301
1971199N11254 1971 75 EP MM FRANCENE:FRANCESCA 1971-07-19 00:00:00 TS 12.7000 -109.300 40 hurdat_epa main 872 868 O________OO___ hurdat_epa EP061971 12.7000 -109.300 TS 40 0 12.7000 -109.300 TC 40 12.7000 -109.300 2 14 298
1971199N11254 1971 75 EP MM FRANCENE:FRANCESCA 1971-07-19 03:00:00 TS 13.0383 -110.014 main 888 886 P________PP___ EP061971 13.0426 -110.020 TS 40 0 13.0426 -110.020 TC 40 13.0209 -109.992 2 16 296
1971199N11254 1971 75 EP MM FRANCENE:FRANCESCA 1971-07-19 06:00:00 TS 13.3927 -110.787 40 hurdat_epa main 911 911 O________OP___ hurdat_epa EP061971 13.4000 -110.800 TS 40 0 13.4000 -110.800 TC 40 13.3634 -110.735 2 16 296
1971199N11254 1971 75 EP MM FRANCENE:FRANCESCA 1971-07-19 09:00:00 TS 13.7387 -111.521 main 941 941 P________PP___ EP061971 13.7424 -111.530 TS 57 0 13.7424 -111.530 TC 57 13.7240 -111.486 2 15 297
1971199N11254 1971 75 EP MM FRANCENE:FRANCESCA 1971-07-19 12:00:00 TS 14.1000 -112.200 75 hurdat_epa main 965 965 O________OO___ hurdat_epa EP061971 14.1000 -112.200 HU 75 1 14.1000 -112.200 TC 75 14.1000 -112.200 4 14 302
1971199N11254 1971 75 EP MM FRANCENE:FRANCESCA 1971-07-19 15:00:00 TS 14.4964 -112.779 main 984 959 P________PP___ EP061971 14.4921 -112.765 HU 87 2 14.4921 -112.765 TC 87 14.5133 -112.834 4 14 307
1971199N11254 1971 75 EP MM FRANCENE:FRANCESCA 1971-07-19 18:00:00 TS 14.9073 -113.325 100 hurdat_epa main 959 939 O________OP___ hurdat_epa EP061971 14.9000 -113.300 HU 100 3 14.9000 -113.300 TC 100 14.9366 -113.425 4 14 307
1971199N11254 1971 75 EP MM FRANCENE:FRANCESCA 1971-07-19 21:00:00 TS 15.3324 -113.927 main 943 928 P________PP___ EP061971 15.3301 -113.915 HU 100 3 15.3301 -113.915 TC 100 15.3416 -113.978 4 14 305
1971199N11254 1971 75 EP MM FRANCENE:FRANCESCA 1971-07-20 00:00:00 TS 15.7000 -114.500 100 hurdat_epa main 933 929 O________OO___ hurdat_epa EP061971 15.7000 -114.500 HU 100 3 15.7000 -114.500 TC 100 15.7000 -114.500 4 12 301
1971199N11254 1971 75 EP MM FRANCENE:FRANCESCA 1971-07-20 03:00:00 TS 15.9377 -114.984 main 942 932 P________PP___ EP061971 15.9222 -114.965 HU 100 3 15.9222 -114.965 TC 100 15.9996 -115.057 4 10 296
1971199N11254 1971 75 EP MM FRANCENE:FRANCESCA 1971-07-20 06:00:00 TS 16.1295 -115.436 100 hurdat_epa main 947 945 O________OP___ hurdat_epa EP061971 16.1000 -115.400 HU 100 3 16.1000 -115.400 TC 100 16.2476 -115.578 4 10 295
1971199N11254 1971 75 EP MM FRANCENE:FRANCESCA 1971-07-20 09:00:00 TS 16.3815 -115.963 main 960 958 P________PP___ EP061971 16.3652 -115.945 HU 100 3 16.3652 -115.945 TC 100 16.4467 -116.035 4 10 297
1971199N11254 1971 75 EP MM FRANCENE:FRANCESCA 1971-07-20 12:00:00 TS 16.6000 -116.400 100 hurdat_epa main 971 970 O________OO___ hurdat_epa EP061971 16.6000 -116.400 HU 100 3 16.6000 -116.400 TC 100 16.6000 -116.400 4 7 300
1971199N11254 1971 75 EP MM FRANCENE:FRANCESCA 1971-07-20 15:00:00 TS 16.7311 -116.589 main 978 970 P________PP___ EP061971 16.7298 -116.603 HU 80 1 16.7298 -116.603 TC 80 16.7365 -116.534 4 3 308
1971199N11254 1971 75 EP MM FRANCENE:FRANCESCA 1971-07-20 18:00:00 TS 16.8059 -116.679 60 991 hurdat_epa main 977 969 O________OP___ hurdat_epa EP061971 16.8000 -116.700 TS 60 991 0 16.8000 -116.700 TC 60 991 16.8295 -116.596 4 2 315
1971199N11254 1971 75 EP MM FRANCENE:FRANCESCA 1971-07-20 21:00:00 TS 16.8741 -116.738 main 969 969 P________PP___ EP061971 16.8719 -116.745 TS 60 0 16.8719 -116.745 TC 60 16.8828 -116.709 4 3 287
1971199N11254 1971 75 EP MM FRANCENE:FRANCESCA 1971-07-21 00:00:00 TS 16.9000 -117.000 60 hurdat_epa main 992 992 O________OO___ hurdat_epa EP061971 16.9000 -117.000 TS 60 0 16.9000 -117.000 TC 60 16.9000 -117.000 4 10 270
1971199N11254 1971 75 EP MM FRANCENE:FRANCESCA 1971-07-21 03:00:00 TS 16.8695 -117.741 main 1047 1047 P________PP___ EP061971 16.8657 -117.753 TS 60 0 16.8657 -117.753 TC 60 16.8850 -117.696 4 16 267
1971199N11254 1971 75 EP MM FRANCENE:FRANCESCA 1971-07-21 06:00:00 TS 16.8069 -118.674 60 hurdat_epa main 1118 1118 O________OP___ hurdat_epa EP061971 16.8000 -118.700 TS 60 0 16.8000 -118.700 TC 60 16.8346 -118.568 4 17 266
1971199N11254 1971 75 EP MM FRANCENE:FRANCESCA 1971-07-21 09:00:00 TS 16.7534 -119.550 main 1177 1177 P________PP___ EP061971 16.7502 -119.567 TS 50 0 16.7502 -119.567 TC 50 16.7663 -119.481 4 16 266
1971199N11254 1971 75 EP MM FRANCENE:FRANCESCA 1971-07-21 12:00:00 TS 16.7000 -120.300 40 hurdat_epa main 1235 1235 O________OO___ hurdat_epa EP061971 16.7000 -120.300 TS 40 0 16.7000 -120.300 TC 40 16.7000 -120.300 2 12 265
1971199N11254 1971 75 EP MM FRANCENE:FRANCESCA 1971-07-21 15:00:00 TS 16.6466 -120.764 main 1279 1279 P________PP___ EP061971 16.6419 -120.752 TS 40 0 16.6419 -120.752 TC 40 16.6655 -120.811 2 8 263
1971199N11254 1971 75 EP MM FRANCENE:FRANCESCA 1971-07-21 18:00:00 TS 16.6079 -121.123 40 1005 hurdat_epa main 1301 1301 O________OP___ hurdat_epa EP061971 16.6000 -121.100 TS 40 1005 0 16.6000 -121.100 TC 40 1005 16.6395 -121.217 2 7 266
1971199N11254 1971 75 EP MM FRANCENE:FRANCESCA 1971-07-21 21:00:00 TS 16.5976 -121.534 main 1331 1331 P________PP___ EP061971 16.5923 -121.520 TS 40 0 16.5923 -121.520 TC 40 16.6189 -121.589 2 8 269
1971199N11254 1971 75 EP MM FRANCENE:FRANCESCA 1971-07-22 00:00:00 TS 16.6000 -122.000 40 hurdat_epa main 1369 1369 O________OO___ hurdat_epa EP061971 16.6000 -122.000 TS 40 0 16.6000 -122.000 TC 40 16.6000 -122.000 2 10 270
1971199N11254 1971 75 EP MM FRANCENE:FRANCESCA 1971-07-22 03:00:00 TS 16.6034 -122.568 main 1416 1416 P________PP___ EP061971 16.6075 -122.577 TS 40 0 16.6075 -122.577 TC 40 16.5869 -122.529 2 11 270
1971199N11254 1971 75 EP MM FRANCENE:FRANCESCA 1971-07-22 06:00:00 TS 16.5944 -123.182 40 hurdat_epa main 1464 1464 O________OP___ hurdat_epa EP061971 16.6000 -123.200 TS 40 0 16.6000 -123.200 TC 40 16.5719 -123.110 2 12 268
1971199N11254 1971 75 EP MM FRANCENE:FRANCESCA 1971-07-22 09:00:00 TS 16.5549 -123.769 main 1513 1513 P________PP___ EP061971 16.5571 -123.778 TS 37 0 16.5571 -123.778 TC 37 16.5460 -123.735 2 12 265
1971199N11254 1971 75 EP MM FRANCENE:FRANCESCA 1971-07-22 12:00:00 TS 16.5000 -124.400 35 hurdat_epa main 1570 1570 O________OO___ hurdat_epa EP061971 16.5000 -124.400 TS 35 0 16.5000 -124.400 TC 35 16.5000 -124.400 2 13 266
1971199N11254 1971 75 EP MM FRANCENE:FRANCESCA 1971-07-22 15:00:00 TS 16.4598 -125.135 main 1626 1626 P________PP___ EP061971 16.4650 -125.135 TS 40 0 16.4650 -125.135 TC 40 16.4387 -125.138 2 14 266
1971199N11254 1971 75 EP MM FRANCENE:FRANCESCA 1971-07-22 18:00:00 TS 16.3908 -125.901 45 995 hurdat_epa main 1688 1688 O________OP___ hurdat_epa EP061971 16.4000 -125.900 TS 45 995 0 16.4000 -125.900 TC 45 995 16.3538 -125.903 2 15 262
1971199N11254 1971 75 EP MM FRANCENE:FRANCESCA 1971-07-22 21:00:00 TS 16.2604 -126.644 main 1745 1745 P________PP___ EP061971 16.2650 -126.645 TS 45 0 16.2650 -126.645 TC 45 16.2419 -126.641 2 14 258
1971199N11254 1971 75 EP MM FRANCENE:FRANCESCA 1971-07-23 00:00:00 TS 16.1000 -127.300 45 hurdat_epa main 1811 1811 O________OO___ hurdat_epa EP061971 16.1000 -127.300 TS 45 0 16.1000 -127.300 TC 45 16.1000 -127.300 2 12 255
1971199N11254 1971 75 EP MM FRANCENE:FRANCESCA 1971-07-23 03:00:00 TS 15.9573 -127.804 main 1856 1856 P________PP___ EP061971 15.9647 -127.795 TS 45 0 15.9647 -127.795 TC 45 15.9277 -127.841 2 9 250
1971199N11254 1971 75 EP MM FRANCENE:FRANCESCA 1971-07-23 06:00:00 TS 15.7863 -128.217 45 hurdat_epa main 1901 1901 O________OP___ hurdat_epa EP061971 15.8000 -128.200 TS 45 0 15.8000 -128.200 TC 45 15.7317 -128.283 2 9 243
1971199N11254 1971 75 EP MM FRANCENE:FRANCESCA 1971-07-23 09:00:00 TS 15.5602 -128.610 main 1947 1947 P________PP___ EP061971 15.5702 -128.598 TS 40 0 15.5702 -128.598 TC 40 15.5199 -128.658 2 9 237
1971199N11254 1971 75 EP MM FRANCENE:FRANCESCA 1971-07-23 12:00:00 TS 15.3000 -129.000 35 hurdat_epa main 2001 O________OO___ hurdat_epa EP061971 15.3000 -129.000 TS 35 0 15.3000 -129.000 TC 35 15.3000 -129.000 6 9 235

About IBTrACS Database

This database is a web-friendly format of International Best Track Archive for Climate Stewardship (IBTrACS), a global best track data archive curated by NOAA dating back to 1842.

Updated: 2021-10-08